sensor_id;sensor_type;location;lat;lon;timestamp;P1;durP1;ratioP1;P2;durP2;ratioP2
35897;SDS011;21997;47.118;15.346;2023-11-21T00:01:56;7.70;;;4.90;;
35897;SDS011;21997;47.118;15.346;2023-11-21T00:04:22;8.77;;;5.67;;
35897;SDS011;21997;47.118;15.346;2023-11-21T00:06:48;8.17;;;5.13;;
35897;SDS011;21997;47.118;15.346;2023-11-21T00:09:13;10.43;;;6.80;;
35897;SDS011;21997;47.118;15.346;2023-11-21T00:11:43;10.73;;;6.60;;
35897;SDS011;21997;47.118;15.346;2023-11-21T00:14:09;10.50;;;6.73;;
35897;SDS011;21997;47.118;15.346;2023-11-21T00:16:35;12.13;;;6.70;;
35897;SDS011;21997;47.118;15.346;2023-11-21T00:19:00;12.20;;;6.73;;
35897;SDS011;21997;47.118;15.346;2023-11-21T00:21:26;11.93;;;7.73;;
35897;SDS011;21997;47.118;15.346;2023-11-21T00:23:52;8.97;;;5.67;;
35897;SDS011;21997;47.118;15.346;2023-11-21T00:26:17;8.30;;;4.70;;
35897;SDS011;21997;47.118;15.346;2023-11-21T00:28:42;7.10;;;5.07;;
35897;SDS011;21997;47.118;15.346;2023-11-21T00:31:08;5.63;;;4.03;;
35897;SDS011;21997;47.118;15.346;2023-11-21T00:33:33;6.43;;;4.97;;
35897;SDS011;21997;47.118;15.346;2023-11-21T00:35:58;6.20;;;4.60;;
35897;SDS011;21997;47.118;15.346;2023-11-21T00:38:24;8.17;;;5.03;;
35897;SDS011;21997;47.118;15.346;2023-11-21T00:40:49;8.13;;;5.90;;
35897;SDS011;21997;47.118;15.346;2023-11-21T00:43:15;8.20;;;5.97;;
35897;SDS011;21997;47.118;15.346;2023-11-21T00:45:40;6.40;;;5.00;;
35897;SDS011;21997;47.118;15.346;2023-11-21T00:48:06;6.33;;;4.60;;
35897;SDS011;21997;47.118;15.346;2023-11-21T00:50:33;8.50;;;5.40;;
35897;SDS011;21997;47.118;15.346;2023-11-21T00:52:58;9.73;;;5.43;;
35897;SDS011;21997;47.118;15.346;2023-11-21T00:55:24;8.27;;;4.77;;
35897;SDS011;21997;47.118;15.346;2023-11-21T00:57:51;8.20;;;4.97;;
35897;SDS011;21997;47.118;15.346;2023-11-21T01:00:16;10.73;;;4.50;;
35897;SDS011;21997;47.118;15.346;2023-11-21T01:02:45;8.07;;;4.07;;
35897;SDS011;21997;47.118;15.346;2023-11-21T01:05:12;6.33;;;4.90;;
35897;SDS011;21997;47.118;15.346;2023-11-21T01:07:38;7.93;;;4.70;;
35897;SDS011;21997;47.118;15.346;2023-11-21T01:10:03;9.23;;;5.53;;
35897;SDS011;21997;47.118;15.346;2023-11-21T01:12:32;7.33;;;5.00;;
35897;SDS011;21997;47.118;15.346;2023-11-21T01:14:59;9.00;;;5.13;;
35897;SDS011;21997;47.118;15.346;2023-11-21T01:17:25;8.43;;;5.13;;
35897;SDS011;21997;47.118;15.346;2023-11-21T01:19:52;11.43;;;5.23;;
35897;SDS011;21997;47.118;15.346;2023-11-21T01:22:17;8.60;;;5.80;;
35897;SDS011;21997;47.118;15.346;2023-11-21T01:24:47;8.53;;;4.70;;
35897;SDS011;21997;47.118;15.346;2023-11-21T01:27:12;6.30;;;4.90;;
35897;SDS011;21997;47.118;15.346;2023-11-21T01:29:38;8.00;;;5.40;;
35897;SDS011;21997;47.118;15.346;2023-11-21T01:32:03;8.50;;;5.17;;
35897;SDS011;21997;47.118;15.346;2023-11-21T01:34:29;7.47;;;5.03;;
35897;SDS011;21997;47.118;15.346;2023-11-21T01:36:54;6.77;;;4.23;;
35897;SDS011;21997;47.118;15.346;2023-11-21T01:39:19;6.63;;;4.87;;
35897;SDS011;21997;47.118;15.346;2023-11-21T01:41:49;8.10;;;5.67;;
35897;SDS011;21997;47.118;15.346;2023-11-21T01:44:17;7.97;;;3.90;;
35897;SDS011;21997;47.118;15.346;2023-11-21T01:46:44;7.40;;;4.33;;
35897;SDS011;21997;47.118;15.346;2023-11-21T01:49:10;7.27;;;4.80;;
35897;SDS011;21997;47.118;15.346;2023-11-21T01:51:38;9.40;;;5.10;;
35897;SDS011;21997;47.118;15.346;2023-11-21T01:54:04;6.10;;;4.80;;
35897;SDS011;21997;47.118;15.346;2023-11-21T01:56:30;6.40;;;4.30;;
35897;SDS011;21997;47.118;15.346;2023-11-21T01:58:56;5.03;;;4.20;;
35897;SDS011;21997;47.118;15.346;2023-11-21T02:01:22;6.77;;;3.63;;
35897;SDS011;21997;47.118;15.346;2023-11-21T02:03:47;4.87;;;4.17;;
35897;SDS011;21997;47.118;15.346;2023-11-21T02:06:13;6.30;;;3.90;;
35897;SDS011;21997;47.118;15.346;2023-11-21T02:08:38;8.57;;;4.10;;
35897;SDS011;21997;47.118;15.346;2023-11-21T02:11:04;4.73;;;3.87;;
35897;SDS011;21997;47.118;15.346;2023-11-21T02:13:31;5.13;;;3.43;;
35897;SDS011;21997;47.118;15.346;2023-11-21T02:15:57;5.57;;;3.77;;
35897;SDS011;21997;47.118;15.346;2023-11-21T02:18:23;4.90;;;3.50;;
35897;SDS011;21997;47.118;15.346;2023-11-21T02:20:48;5.60;;;3.60;;
35897;SDS011;21997;47.118;15.346;2023-11-21T02:23:14;3.70;;;2.63;;
35897;SDS011;21997;47.118;15.346;2023-11-21T02:25:39;6.73;;;3.57;;
35897;SDS011;21997;47.118;15.346;2023-11-21T02:28:07;6.03;;;3.33;;
35897;SDS011;21997;47.118;15.346;2023-11-21T02:30:33;3.87;;;2.87;;
35897;SDS011;21997;47.118;15.346;2023-11-21T02:32:59;6.67;;;3.00;;
35897;SDS011;21997;47.118;15.346;2023-11-21T02:35:25;4.67;;;2.70;;
35897;SDS011;21997;47.118;15.346;2023-11-21T02:37:53;4.30;;;3.03;;
35897;SDS011;21997;47.118;15.346;2023-11-21T02:40:19;4.30;;;3.00;;
35897;SDS011;21997;47.118;15.346;2023-11-21T02:42:50;3.90;;;2.60;;
35897;SDS011;21997;47.118;15.346;2023-11-21T02:45:18;7.90;;;3.33;;
35897;SDS011;21997;47.118;15.346;2023-11-21T02:47:46;3.27;;;2.93;;
35897;SDS011;21997;47.118;15.346;2023-11-21T02:50:12;5.93;;;3.10;;
35897;SDS011;21997;47.118;15.346;2023-11-21T02:52:38;3.93;;;2.80;;
35897;SDS011;21997;47.118;15.346;2023-11-21T02:55:05;4.30;;;3.43;;
35897;SDS011;21997;47.118;15.346;2023-11-21T02:57:32;5.33;;;3.37;;
35897;SDS011;21997;47.118;15.346;2023-11-21T02:59:58;7.00;;;3.30;;
35897;SDS011;21997;47.118;15.346;2023-11-21T03:02:25;4.33;;;2.80;;
35897;SDS011;21997;47.118;15.346;2023-11-21T03:04:50;4.77;;;2.60;;
35897;SDS011;21997;47.118;15.346;2023-11-21T03:07:16;3.50;;;2.70;;
35897;SDS011;21997;47.118;15.346;2023-11-21T03:09:44;4.87;;;3.40;;
35897;SDS011;21997;47.118;15.346;2023-11-21T03:12:10;3.07;;;2.67;;
35897;SDS011;21997;47.118;15.346;2023-11-21T03:14:37;3.80;;;2.70;;
35897;SDS011;21997;47.118;15.346;2023-11-21T03:17:02;3.27;;;2.77;;
35897;SDS011;21997;47.118;15.346;2023-11-21T03:19:30;4.87;;;3.03;;
35897;SDS011;21997;47.118;15.346;2023-11-21T03:21:56;5.17;;;2.57;;
35897;SDS011;21997;47.118;15.346;2023-11-21T03:24:21;4.20;;;2.80;;
35897;SDS011;21997;47.118;15.346;2023-11-21T03:26:47;2.83;;;2.50;;
35897;SDS011;21997;47.118;15.346;2023-11-21T03:29:13;3.67;;;2.80;;
35897;SDS011;21997;47.118;15.346;2023-11-21T03:31:40;6.30;;;3.00;;
35897;SDS011;21997;47.118;15.346;2023-11-21T03:34:05;6.33;;;2.67;;
35897;SDS011;21997;47.118;15.346;2023-11-21T03:36:31;5.10;;;2.83;;
35897;SDS011;21997;47.118;15.346;2023-11-21T03:38:56;3.63;;;3.00;;
35897;SDS011;21997;47.118;15.346;2023-11-21T03:41:22;4.67;;;2.90;;
35897;SDS011;21997;47.118;15.346;2023-11-21T03:43:47;5.20;;;3.13;;
35897;SDS011;21997;47.118;15.346;2023-11-21T03:46:12;5.53;;;3.13;;
35897;SDS011;21997;47.118;15.346;2023-11-21T03:48:38;4.27;;;3.03;;
35897;SDS011;21997;47.118;15.346;2023-11-21T03:51:04;4.93;;;3.67;;
35897;SDS011;21997;47.118;15.346;2023-11-21T03:53:29;5.47;;;3.07;;
35897;SDS011;21997;47.118;15.346;2023-11-21T03:55:54;4.67;;;2.70;;
35897;SDS011;21997;47.118;15.346;2023-11-21T03:58:20;3.13;;;2.67;;
35897;SDS011;21997;47.118;15.346;2023-11-21T04:00:46;5.27;;;3.27;;
35897;SDS011;21997;47.118;15.346;2023-11-21T04:03:13;5.40;;;3.13;;
35897;SDS011;21997;47.118;15.346;2023-11-21T04:05:39;5.33;;;2.80;;
35897;SDS011;21997;47.118;15.346;2023-11-21T04:08:04;4.07;;;2.67;;
35897;SDS011;21997;47.118;15.346;2023-11-21T04:10:30;4.10;;;2.97;;
35897;SDS011;21997;47.118;15.346;2023-11-21T04:12:55;5.37;;;2.90;;
35897;SDS011;21997;47.118;15.346;2023-11-21T04:15:20;4.70;;;3.13;;
35897;SDS011;21997;47.118;15.346;2023-11-21T04:17:46;7.40;;;2.30;;
35897;SDS011;21997;47.118;15.346;2023-11-21T04:20:11;4.50;;;2.50;;
35897;SDS011;21997;47.118;15.346;2023-11-21T04:22:40;4.50;;;3.33;;
35897;SDS011;21997;47.118;15.346;2023-11-21T04:25:13;5.27;;;3.93;;
35897;SDS011;21997;47.118;15.346;2023-11-21T04:27:39;2.83;;;2.50;;
35897;SDS011;21997;47.118;15.346;2023-11-21T04:30:05;4.47;;;2.97;;
35897;SDS011;21997;47.118;15.346;2023-11-21T04:32:32;5.17;;;2.80;;
35897;SDS011;21997;47.118;15.346;2023-11-21T04:35:01;4.10;;;2.90;;
35897;SDS011;21997;47.118;15.346;2023-11-21T04:37:29;4.03;;;3.27;;
35897;SDS011;21997;47.118;15.346;2023-11-21T04:39:55;4.93;;;3.07;;
35897;SDS011;21997;47.118;15.346;2023-11-21T04:42:21;4.97;;;3.07;;
35897;SDS011;21997;47.118;15.346;2023-11-21T04:44:46;6.67;;;3.40;;
35897;SDS011;21997;47.118;15.346;2023-11-21T04:47:12;6.67;;;4.23;;
35897;SDS011;21997;47.118;15.346;2023-11-21T04:49:37;5.73;;;3.67;;
35897;SDS011;21997;47.118;15.346;2023-11-21T04:52:05;8.10;;;4.07;;
35897;SDS011;21997;47.118;15.346;2023-11-21T04:54:32;7.50;;;3.97;;
35897;SDS011;21997;47.118;15.346;2023-11-21T04:56:58;6.13;;;4.10;;
35897;SDS011;21997;47.118;15.346;2023-11-21T04:59:23;5.20;;;3.20;;
35897;SDS011;21997;47.118;15.346;2023-11-21T05:01:52;6.73;;;4.40;;
35897;SDS011;21997;47.118;15.346;2023-11-21T05:04:18;7.07;;;4.13;;
35897;SDS011;21997;47.118;15.346;2023-11-21T05:06:44;5.97;;;3.80;;
35897;SDS011;21997;47.118;15.346;2023-11-21T05:09:09;6.13;;;4.00;;
35897;SDS011;21997;47.118;15.346;2023-11-21T05:11:37;5.23;;;3.60;;
35897;SDS011;21997;47.118;15.346;2023-11-21T05:14:02;7.87;;;3.97;;
35897;SDS011;21997;47.118;15.346;2023-11-21T05:16:29;5.83;;;3.40;;
35897;SDS011;21997;47.118;15.346;2023-11-21T05:18:54;3.50;;;2.90;;
35897;SDS011;21997;47.118;15.346;2023-11-21T05:21:25;3.77;;;2.90;;
35897;SDS011;21997;47.118;15.346;2023-11-21T05:23:51;4.13;;;3.40;;
35897;SDS011;21997;47.118;15.346;2023-11-21T05:26:16;3.27;;;2.77;;
35897;SDS011;21997;47.118;15.346;2023-11-21T05:28:42;5.53;;;3.10;;
35897;SDS011;21997;47.118;15.346;2023-11-21T05:31:07;3.40;;;2.80;;
35897;SDS011;21997;47.118;15.346;2023-11-21T05:33:33;3.77;;;2.60;;
35897;SDS011;21997;47.118;15.346;2023-11-21T05:35:58;5.83;;;3.03;;
35897;SDS011;21997;47.118;15.346;2023-11-21T05:38:24;3.37;;;2.90;;
35897;SDS011;21997;47.118;15.346;2023-11-21T05:40:49;4.03;;;2.97;;
35897;SDS011;21997;47.118;15.346;2023-11-21T05:43:15;3.00;;;2.70;;
35897;SDS011;21997;47.118;15.346;2023-11-21T05:45:40;6.57;;;2.83;;
35897;SDS011;21997;47.118;15.346;2023-11-21T05:48:06;4.60;;;3.00;;
35897;SDS011;21997;47.118;15.346;2023-11-21T05:50:31;4.93;;;2.53;;
35897;SDS011;21997;47.118;15.346;2023-11-21T05:52:57;4.20;;;3.13;;
35897;SDS011;21997;47.118;15.346;2023-11-21T05:55:24;5.27;;;3.00;;
35897;SDS011;21997;47.118;15.346;2023-11-21T05:57:51;5.87;;;2.80;;
35897;SDS011;21997;47.118;15.346;2023-11-21T06:00:16;3.87;;;3.00;;
35897;SDS011;21997;47.118;15.346;2023-11-21T06:02:51;4.37;;;2.73;;
35897;SDS011;21997;47.118;15.346;2023-11-21T06:05:23;3.87;;;3.20;;
35897;SDS011;21997;47.118;15.346;2023-11-21T06:07:49;6.83;;;3.63;;
35897;SDS011;21997;47.118;15.346;2023-11-21T06:10:19;3.80;;;3.03;;
35897;SDS011;21997;47.118;15.346;2023-11-21T06:12:45;4.67;;;2.70;;
35897;SDS011;21997;47.118;15.346;2023-11-21T06:15:11;7.60;;;3.90;;
35897;SDS011;21997;47.118;15.346;2023-11-21T06:17:38;7.87;;;3.90;;
35897;SDS011;21997;47.118;15.346;2023-11-21T06:20:10;4.97;;;3.57;;
35897;SDS011;21997;47.118;15.346;2023-11-21T06:22:39;7.30;;;4.43;;
35897;SDS011;21997;47.118;15.346;2023-11-21T06:25:06;11.50;;;6.70;;
35897;SDS011;21997;47.118;15.346;2023-11-21T06:27:33;7.97;;;5.60;;
35897;SDS011;21997;47.118;15.346;2023-11-21T06:29:59;9.37;;;5.53;;
35897;SDS011;21997;47.118;15.346;2023-11-21T06:32:24;9.37;;;5.53;;
35897;SDS011;21997;47.118;15.346;2023-11-21T06:34:51;11.77;;;6.20;;
35897;SDS011;21997;47.118;15.346;2023-11-21T06:37:19;9.50;;;5.40;;
35897;SDS011;21997;47.118;15.346;2023-11-21T06:39:47;7.43;;;4.60;;
35897;SDS011;21997;47.118;15.346;2023-11-21T06:42:13;8.50;;;5.30;;
35897;SDS011;21997;47.118;15.346;2023-11-21T06:44:40;8.43;;;4.73;;
35897;SDS011;21997;47.118;15.346;2023-11-21T06:47:06;6.67;;;4.93;;
35897;SDS011;21997;47.118;15.346;2023-11-21T06:49:32;7.97;;;5.13;;
35897;SDS011;21997;47.118;15.346;2023-11-21T06:51:57;9.13;;;6.00;;
35897;SDS011;21997;47.118;15.346;2023-11-21T06:54:23;8.67;;;6.10;;
35897;SDS011;21997;47.118;15.346;2023-11-21T06:56:49;8.07;;;6.13;;
35897;SDS011;21997;47.118;15.346;2023-11-21T06:59:15;39.50;;;16.87;;
35897;SDS011;21997;47.118;15.346;2023-11-21T07:01:40;42.77;;;18.73;;
35897;SDS011;21997;47.118;15.346;2023-11-21T07:04:06;33.57;;;15.87;;
35897;SDS011;21997;47.118;15.346;2023-11-21T07:06:32;20.57;;;9.67;;
35897;SDS011;21997;47.118;15.346;2023-11-21T07:08:58;38.27;;;17.30;;
35897;SDS011;21997;47.118;15.346;2023-11-21T07:11:24;57.47;;;23.53;;
35897;SDS011;21997;47.118;15.346;2023-11-21T07:13:50;25.23;;;13.67;;
35897;SDS011;21997;47.118;15.346;2023-11-21T07:16:16;36.67;;;17.77;;
35897;SDS011;21997;47.118;15.346;2023-11-21T07:18:42;44.67;;;19.93;;
35897;SDS011;21997;47.118;15.346;2023-11-21T07:21:07;47.10;;;19.73;;
35897;SDS011;21997;47.118;15.346;2023-11-21T07:23:33;50.77;;;21.17;;
35897;SDS011;21997;47.118;15.346;2023-11-21T07:25:59;52.00;;;20.77;;
35897;SDS011;21997;47.118;15.346;2023-11-21T07:28:24;46.63;;;20.53;;
35897;SDS011;21997;47.118;15.346;2023-11-21T07:30:50;36.40;;;17.30;;
35897;SDS011;21997;47.118;15.346;2023-11-21T07:33:16;35.57;;;16.00;;
35897;SDS011;21997;47.118;15.346;2023-11-21T07:35:42;32.77;;;14.93;;
35897;SDS011;21997;47.118;15.346;2023-11-21T07:38:08;39.57;;;18.43;;
35897;SDS011;21997;47.118;15.346;2023-11-21T07:40:33;62.27;;;25.03;;
35897;SDS011;21997;47.118;15.346;2023-11-21T07:42:59;61.73;;;25.50;;
35897;SDS011;21997;47.118;15.346;2023-11-21T07:45:25;47.73;;;23.60;;
35897;SDS011;21997;47.118;15.346;2023-11-21T07:47:52;47.53;;;19.63;;
35897;SDS011;21997;47.118;15.346;2023-11-21T07:50:19;36.10;;;17.57;;
35897;SDS011;21997;47.118;15.346;2023-11-21T07:52:45;35.93;;;16.90;;
35897;SDS011;21997;47.118;15.346;2023-11-21T07:55:11;21.47;;;12.13;;
35897;SDS011;21997;47.118;15.346;2023-11-21T07:57:36;20.23;;;11.20;;
35897;SDS011;21997;47.118;15.346;2023-11-21T08:00:03;20.30;;;10.10;;
35897;SDS011;21997;47.118;15.346;2023-11-21T08:02:31;16.70;;;9.30;;
35897;SDS011;21997;47.118;15.346;2023-11-21T08:04:57;17.07;;;8.10;;
35897;SDS011;21997;47.118;15.346;2023-11-21T08:07:22;12.40;;;7.37;;
35897;SDS011;21997;47.118;15.346;2023-11-21T08:09:47;15.13;;;8.57;;
35897;SDS011;21997;47.118;15.346;2023-11-21T08:12:15;11.57;;;7.73;;
35897;SDS011;21997;47.118;15.346;2023-11-21T08:14:40;9.20;;;7.13;;
35897;SDS011;21997;47.118;15.346;2023-11-21T08:17:06;12.37;;;7.73;;
35897;SDS011;21997;47.118;15.346;2023-11-21T08:19:31;14.63;;;7.60;;
35897;SDS011;21997;47.118;15.346;2023-11-21T08:21:57;14.10;;;8.27;;
35897;SDS011;21997;47.118;15.346;2023-11-21T08:24:24;13.33;;;8.30;;
35897;SDS011;21997;47.118;15.346;2023-11-21T08:26:49;9.07;;;6.20;;
35897;SDS011;21997;47.118;15.346;2023-11-21T08:29:17;10.83;;;7.13;;
35897;SDS011;21997;47.118;15.346;2023-11-21T08:31:43;6.80;;;6.10;;
35897;SDS011;21997;47.118;15.346;2023-11-21T08:34:11;7.70;;;5.60;;
35897;SDS011;21997;47.118;15.346;2023-11-21T08:36:41;7.43;;;5.03;;
35897;SDS011;21997;47.118;15.346;2023-11-21T08:39:10;9.40;;;5.80;;
35897;SDS011;21997;47.118;15.346;2023-11-21T08:41:36;7.10;;;5.27;;
35897;SDS011;21997;47.118;15.346;2023-11-21T08:44:02;9.47;;;6.43;;
35897;SDS011;21997;47.118;15.346;2023-11-21T08:46:31;12.57;;;7.27;;
35897;SDS011;21997;47.118;15.346;2023-11-21T08:48:58;9.73;;;6.57;;
35897;SDS011;21997;47.118;15.346;2023-11-21T08:51:24;8.70;;;6.43;;
35897;SDS011;21997;47.118;15.346;2023-11-21T08:53:50;10.07;;;6.23;;
35897;SDS011;21997;47.118;15.346;2023-11-21T08:56:16;11.87;;;6.50;;
35897;SDS011;21997;47.118;15.346;2023-11-21T08:58:44;12.30;;;6.20;;
35897;SDS011;21997;47.118;15.346;2023-11-21T09:01:13;8.37;;;5.90;;
35897;SDS011;21997;47.118;15.346;2023-11-21T09:03:38;6.30;;;5.03;;
35897;SDS011;21997;47.118;15.346;2023-11-21T09:06:03;8.03;;;5.30;;
35897;SDS011;21997;47.118;15.346;2023-11-21T09:08:29;9.37;;;5.13;;
35897;SDS011;21997;47.118;15.346;2023-11-21T09:10:55;9.47;;;5.73;;
35897;SDS011;21997;47.118;15.346;2023-11-21T09:13:20;6.40;;;4.73;;
35897;SDS011;21997;47.118;15.346;2023-11-21T09:15:45;6.70;;;4.60;;
35897;SDS011;21997;47.118;15.346;2023-11-21T09:18:14;6.40;;;5.57;;
35897;SDS011;21997;47.118;15.346;2023-11-21T09:20:40;6.70;;;5.13;;
35897;SDS011;21997;47.118;15.346;2023-11-21T09:23:06;7.50;;;5.20;;
35897;SDS011;21997;47.118;15.346;2023-11-21T09:25:32;7.83;;;5.33;;
35897;SDS011;21997;47.118;15.346;2023-11-21T09:27:58;8.83;;;5.47;;
35897;SDS011;21997;47.118;15.346;2023-11-21T09:30:23;6.90;;;4.97;;
35897;SDS011;21997;47.118;15.346;2023-11-21T09:32:50;6.77;;;5.00;;
35897;SDS011;21997;47.118;15.346;2023-11-21T09:35:17;7.90;;;5.53;;
35897;SDS011;21997;47.118;15.346;2023-11-21T09:37:46;6.03;;;4.50;;
35897;SDS011;21997;47.118;15.346;2023-11-21T09:40:12;7.73;;;5.23;;
35897;SDS011;21997;47.118;15.346;2023-11-21T09:45:34;7.27;;;4.83;;
35897;SDS011;21997;47.118;15.346;2023-11-21T09:48:00;7.83;;;5.10;;
35897;SDS011;21997;47.118;15.346;2023-11-21T09:50:27;8.37;;;5.37;;
35897;SDS011;21997;47.118;15.346;2023-11-21T09:55:39;7.90;;;5.63;;
35897;SDS011;21997;47.118;15.346;2023-11-21T09:58:10;7.70;;;5.63;;
35897;SDS011;21997;47.118;15.346;2023-11-21T10:00:42;6.80;;;5.53;;
35897;SDS011;21997;47.118;15.346;2023-11-21T10:03:09;6.13;;;4.90;;
35897;SDS011;21997;47.118;15.346;2023-11-21T10:05:35;8.43;;;5.60;;
35897;SDS011;21997;47.118;15.346;2023-11-21T10:08:01;8.37;;;5.00;;
35897;SDS011;21997;47.118;15.346;2023-11-21T10:10:37;7.47;;;4.80;;
35897;SDS011;21997;47.118;15.346;2023-11-21T10:13:06;9.27;;;5.07;;
35897;SDS011;21997;47.118;15.346;2023-11-21T10:15:37;8.13;;;5.43;;
35897;SDS011;21997;47.118;15.346;2023-11-21T10:18:03;9.33;;;5.30;;
35897;SDS011;21997;47.118;15.346;2023-11-21T10:20:31;10.17;;;5.20;;
35897;SDS011;21997;47.118;15.346;2023-11-21T10:22:58;7.83;;;5.33;;
35897;SDS011;21997;47.118;15.346;2023-11-21T10:25:27;9.37;;;6.83;;
35897;SDS011;21997;47.118;15.346;2023-11-21T10:27:56;16.60;;;10.83;;
35897;SDS011;21997;47.118;15.346;2023-11-21T10:30:27;17.60;;;10.40;;
35897;SDS011;21997;47.118;15.346;2023-11-21T10:32:58;16.83;;;9.47;;
35897;SDS011;21997;47.118;15.346;2023-11-21T10:35:38;12.70;;;8.53;;
35897;SDS011;21997;47.118;15.346;2023-11-21T10:38:06;13.87;;;8.73;;
35897;SDS011;21997;47.118;15.346;2023-11-21T10:40:37;11.67;;;7.63;;
35897;SDS011;21997;47.118;15.346;2023-11-21T10:43:08;12.17;;;7.50;;
35897;SDS011;21997;47.118;15.346;2023-11-21T10:45:38;10.03;;;6.90;;
35897;SDS011;21997;47.118;15.346;2023-11-21T10:48:07;10.30;;;6.90;;
35897;SDS011;21997;47.118;15.346;2023-11-21T10:50:34;10.57;;;6.70;;
35897;SDS011;21997;47.118;15.346;2023-11-21T10:53:01;9.67;;;7.63;;
35897;SDS011;21997;47.118;15.346;2023-11-21T10:55:28;13.20;;;9.53;;
35897;SDS011;21997;47.118;15.346;2023-11-21T10:57:54;13.03;;;8.07;;
35897;SDS011;21997;47.118;15.346;2023-11-21T11:00:23;32.03;;;16.57;;
35897;SDS011;21997;47.118;15.346;2023-11-21T11:02:51;21.63;;;12.77;;
35897;SDS011;21997;47.118;15.346;2023-11-21T11:05:19;21.23;;;12.57;;
35897;SDS011;21997;47.118;15.346;2023-11-21T11:07:47;15.17;;;10.60;;
35897;SDS011;21997;47.118;15.346;2023-11-21T11:10:13;17.40;;;10.17;;
35897;SDS011;21997;47.118;15.346;2023-11-21T11:12:41;15.03;;;9.10;;
35897;SDS011;21997;47.118;15.346;2023-11-21T11:15:07;19.17;;;10.53;;
35897;SDS011;21997;47.118;15.346;2023-11-21T11:17:36;20.80;;;9.23;;
35897;SDS011;21997;47.118;15.346;2023-11-21T11:20:04;13.33;;;8.20;;
35897;SDS011;21997;47.118;15.346;2023-11-21T11:22:37;16.77;;;8.20;;
35897;SDS011;21997;47.118;15.346;2023-11-21T11:27:48;12.87;;;7.63;;
35897;SDS011;21997;47.118;15.346;2023-11-21T11:35:24;12.60;;;7.30;;
35897;SDS011;21997;47.118;15.346;2023-11-21T11:37:55;10.23;;;7.07;;
35897;SDS011;21997;47.118;15.346;2023-11-21T11:40:21;10.33;;;6.77;;
35897;SDS011;21997;47.118;15.346;2023-11-21T11:42:56;11.03;;;7.00;;
35897;SDS011;21997;47.118;15.346;2023-11-21T11:45:23;11.33;;;6.90;;
35897;SDS011;21997;47.118;15.346;2023-11-21T11:47:56;7.93;;;5.90;;
35897;SDS011;21997;47.118;15.346;2023-11-21T11:50:22;9.80;;;6.20;;
35897;SDS011;21997;47.118;15.346;2023-11-21T11:52:48;8.40;;;5.67;;
35897;SDS011;21997;47.118;15.346;2023-11-21T11:55:20;9.30;;;5.13;;
35897;SDS011;21997;47.118;15.346;2023-11-21T11:57:47;7.67;;;5.40;;
35897;SDS011;21997;47.118;15.346;2023-11-21T12:00:15;7.57;;;6.30;;
35897;SDS011;21997;47.118;15.346;2023-11-21T12:02:53;9.07;;;6.57;;
35897;SDS011;21997;47.118;15.346;2023-11-21T12:05:22;8.07;;;6.13;;
35897;SDS011;21997;47.118;15.346;2023-11-21T12:07:52;7.27;;;6.10;;
35897;SDS011;21997;47.118;15.346;2023-11-21T12:10:22;8.43;;;7.10;;
35897;SDS011;21997;47.118;15.346;2023-11-21T12:12:52;8.57;;;6.27;;
35897;SDS011;21997;47.118;15.346;2023-11-21T12:15:18;8.20;;;6.47;;
35897;SDS011;21997;47.118;15.346;2023-11-21T12:17:44;11.13;;;6.33;;
35897;SDS011;21997;47.118;15.346;2023-11-21T12:20:11;6.40;;;4.97;;
35897;SDS011;21997;47.118;15.346;2023-11-21T12:22:44;6.80;;;4.57;;
35897;SDS011;21997;47.118;15.346;2023-11-21T12:25:12;7.67;;;4.23;;
35897;SDS011;21997;47.118;15.346;2023-11-21T12:28:04;17.00;;;9.43;;
35897;SDS011;21997;47.118;15.346;2023-11-21T12:30:34;11.30;;;7.27;;
35897;SDS011;21997;47.118;15.346;2023-11-21T12:33:01;9.97;;;6.90;;
35897;SDS011;21997;47.118;15.346;2023-11-21T12:35:27;8.83;;;6.50;;
35897;SDS011;21997;47.118;15.346;2023-11-21T12:37:55;9.07;;;6.67;;
35897;SDS011;21997;47.118;15.346;2023-11-21T12:40:22;11.90;;;6.93;;
35897;SDS011;21997;47.118;15.346;2023-11-21T12:42:48;8.37;;;6.40;;
35897;SDS011;21997;47.118;15.346;2023-11-21T12:45:19;8.93;;;5.80;;
35897;SDS011;21997;47.118;15.346;2023-11-21T12:47:50;9.60;;;6.73;;
35897;SDS011;21997;47.118;15.346;2023-11-21T12:50:19;10.17;;;6.83;;
35897;SDS011;21997;47.118;15.346;2023-11-21T12:52:51;7.57;;;5.90;;
35897;SDS011;21997;47.118;15.346;2023-11-21T12:55:19;12.70;;;6.37;;
35897;SDS011;21997;47.118;15.346;2023-11-21T12:57:54;12.67;;;6.40;;
35897;SDS011;21997;47.118;15.346;2023-11-21T13:00:27;11.87;;;8.33;;
35897;SDS011;21997;47.118;15.346;2023-11-21T13:02:54;13.33;;;9.03;;
35897;SDS011;21997;47.118;15.346;2023-11-21T13:05:32;9.73;;;6.83;;
35897;SDS011;21997;47.118;15.346;2023-11-21T13:08:01;9.67;;;6.93;;
35897;SDS011;21997;47.118;15.346;2023-11-21T13:10:28;9.33;;;6.10;;
35897;SDS011;21997;47.118;15.346;2023-11-21T13:13:00;10.20;;;6.47;;
35897;SDS011;21997;47.118;15.346;2023-11-21T13:15:29;9.93;;;5.67;;
35897;SDS011;21997;47.118;15.346;2023-11-21T13:17:57;8.40;;;6.03;;
35897;SDS011;21997;47.118;15.346;2023-11-21T13:20:25;8.37;;;5.40;;
35897;SDS011;21997;47.118;15.346;2023-11-21T13:22:54;8.03;;;5.03;;
35897;SDS011;21997;47.118;15.346;2023-11-21T13:25:29;7.57;;;5.50;;
35897;SDS011;21997;47.118;15.346;2023-11-21T13:27:56;6.97;;;4.97;;
35897;SDS011;21997;47.118;15.346;2023-11-21T13:30:22;8.40;;;5.40;;
35897;SDS011;21997;47.118;15.346;2023-11-21T13:32:56;6.83;;;5.20;;
35897;SDS011;21997;47.118;15.346;2023-11-21T13:35:30;8.40;;;5.77;;
35897;SDS011;21997;47.118;15.346;2023-11-21T13:38:13;10.87;;;5.80;;
35897;SDS011;21997;47.118;15.346;2023-11-21T13:40:40;11.43;;;6.60;;
35897;SDS011;21997;47.118;15.346;2023-11-21T13:43:09;9.40;;;5.27;;
35897;SDS011;21997;47.118;15.346;2023-11-21T13:45:38;8.50;;;5.67;;
35897;SDS011;21997;47.118;15.346;2023-11-21T13:48:05;10.80;;;6.40;;
35897;SDS011;21997;47.118;15.346;2023-11-21T13:50:35;16.77;;;6.80;;
35897;SDS011;21997;47.118;15.346;2023-11-21T13:53:01;11.23;;;5.67;;
35897;SDS011;21997;47.118;15.346;2023-11-21T13:55:46;8.40;;;5.13;;
35897;SDS011;21997;47.118;15.346;2023-11-21T13:58:13;8.57;;;5.00;;
35897;SDS011;21997;47.118;15.346;2023-11-21T14:00:44;9.63;;;5.93;;
35897;SDS011;21997;47.118;15.346;2023-11-21T14:03:14;8.20;;;5.57;;
35897;SDS011;21997;47.118;15.346;2023-11-21T14:05:45;8.77;;;5.23;;
35897;SDS011;21997;47.118;15.346;2023-11-21T14:08:20;9.63;;;5.20;;
35897;SDS011;21997;47.118;15.346;2023-11-21T14:10:49;11.03;;;4.87;;
35897;SDS011;21997;47.118;15.346;2023-11-21T14:13:22;10.43;;;5.43;;
35897;SDS011;21997;47.118;15.346;2023-11-21T14:15:53;5.03;;;4.23;;
35897;SDS011;21997;47.118;15.346;2023-11-21T14:18:27;8.53;;;4.90;;
35897;SDS011;21997;47.118;15.346;2023-11-21T14:21:01;8.30;;;5.33;;
35897;SDS011;21997;47.118;15.346;2023-11-21T14:23:26;5.17;;;4.67;;
35897;SDS011;21997;47.118;15.346;2023-11-21T14:25:53;6.07;;;4.60;;
35897;SDS011;21997;47.118;15.346;2023-11-21T14:28:19;7.53;;;4.80;;
35897;SDS011;21997;47.118;15.346;2023-11-21T14:30:45;5.63;;;4.87;;
35897;SDS011;21997;47.118;15.346;2023-11-21T14:33:11;8.73;;;6.33;;
35897;SDS011;21997;47.118;15.346;2023-11-21T14:35:37;9.60;;;6.23;;
35897;SDS011;21997;47.118;15.346;2023-11-21T14:38:02;6.43;;;5.03;;
35897;SDS011;21997;47.118;15.346;2023-11-21T14:40:30;7.47;;;5.33;;
35897;SDS011;21997;47.118;15.346;2023-11-21T14:43:07;6.37;;;4.93;;
35897;SDS011;21997;47.118;15.346;2023-11-21T14:45:33;7.33;;;4.93;;